createdAt,value
2022-09-14T00:01:35.451Z,60.10
2022-09-14T00:04:01.734Z,60.13
2022-09-14T00:06:28.090Z,59.94
2022-09-14T00:08:54.426Z,60.09
2022-09-14T00:11:20.799Z,60.27
2022-09-14T00:13:47.167Z,60.13
2022-09-14T00:16:13.516Z,60.10
2022-09-14T00:18:39.820Z,60.12
2022-09-14T00:21:06.171Z,60.05
2022-09-14T00:23:32.511Z,60.06
2022-09-14T00:25:58.896Z,60.00
2022-09-14T00:28:25.231Z,60.15
2022-09-14T00:30:51.556Z,60.19
2022-09-14T00:33:17.905Z,60.34
2022-09-14T00:35:44.252Z,60.35
2022-09-14T00:38:10.591Z,60.41
2022-09-14T00:40:36.914Z,60.34
2022-09-14T00:43:03.263Z,60.47
2022-09-14T00:45:29.683Z,60.62
2022-09-14T00:47:55.969Z,60.79
2022-09-14T00:50:22.295Z,60.93
2022-09-14T00:52:48.648Z,61.03
2022-09-14T00:55:14.995Z,60.84
2022-09-14T00:57:41.321Z,60.81
2022-09-14T01:00:07.685Z,60.83
2022-09-14T01:02:34.042Z,60.54
2022-09-14T01:05:00.351Z,60.65
2022-09-14T01:07:26.694Z,60.44
2022-09-14T01:09:53.022Z,60.33
2022-09-14T01:12:19.371Z,60.47
2022-09-14T01:14:45.698Z,60.55
2022-09-14T01:17:12.082Z,60.77
2022-09-14T01:19:38.401Z,60.60
2022-09-14T01:22:04.723Z,60.69
2022-09-14T01:24:31.057Z,60.87
2022-09-14T01:26:57.375Z,61.09
2022-09-14T01:29:23.702Z,61.22
2022-09-14T01:31:50.115Z,61.37
2022-09-14T01:34:16.405Z,61.31
2022-09-14T01:36:42.722Z,61.48
2022-09-14T01:39:09.062Z,61.33
2022-09-14T01:41:35.411Z,61.46
2022-09-14T01:44:01.740Z,61.57
2022-09-14T01:46:28.117Z,61.61
2022-09-14T01:48:54.562Z,61.51
2022-09-14T01:51:20.870Z,61.37
2022-09-14T01:53:47.238Z,61.53
2022-09-14T01:56:13.561Z,61.68
2022-09-14T01:58:39.886Z,61.97
2022-09-14T02:01:06.280Z,62.03
2022-09-14T02:03:32.591Z,61.98
2022-09-14T02:05:58.964Z,62.09
2022-09-14T02:08:25.312Z,62.14
2022-09-14T02:10:51.625Z,62.34
2022-09-14T02:13:18.005Z,62.49
2022-09-14T02:15:44.370Z,62.64
2022-09-14T02:18:10.720Z,62.76
2022-09-14T02:20:37.051Z,62.80
2022-09-14T02:23:03.401Z,62.85
2022-09-14T02:25:29.748Z,62.85
2022-09-14T02:27:56.069Z,62.75
2022-09-14T02:30:22.428Z,62.58
2022-09-14T02:32:48.758Z,62.44
2022-09-14T02:35:15.098Z,62.76
2022-09-14T02:37:41.434Z,62.96
2022-09-14T02:40:07.820Z,62.85
2022-09-14T02:42:34.107Z,62.88
2022-09-14T02:45:00.447Z,63.09
2022-09-14T02:47:26.771Z,63.30
2022-09-14T02:49:53.108Z,63.45
2022-09-14T02:52:19.464Z,63.64
2022-09-14T02:54:45.805Z,63.66
2022-09-14T02:57:12.127Z,63.81
2022-09-14T02:59:38.492Z,63.81
2022-09-14T03:02:04.870Z,63.91
2022-09-14T03:04:31.139Z,63.79
2022-09-14T03:06:57.504Z,63.71
2022-09-14T03:09:23.824Z,63.86
2022-09-14T03:11:50.165Z,63.93
2022-09-14T03:14:16.529Z,63.94
2022-09-14T03:16:42.867Z,64.06
2022-09-14T03:19:09.208Z,64.11
2022-09-14T03:21:35.534Z,64.20
2022-09-14T03:24:01.882Z,64.35
2022-09-14T03:26:28.204Z,64.41
2022-09-14T03:28:54.529Z,64.37
2022-09-14T03:31:20.955Z,64.30
2022-09-14T03:33:47.262Z,64.40
2022-09-14T03:36:13.561Z,64.48
2022-09-14T03:38:39.898Z,64.49
2022-09-14T03:41:06.239Z,64.17
2022-09-14T03:43:32.582Z,64.32
2022-09-14T03:45:58.901Z,64.29
2022-09-14T03:48:25.226Z,64.14
2022-09-14T03:50:51.553Z,64.39
2022-09-14T03:53:17.903Z,64.65
2022-09-14T03:55:44.232Z,64.59
2022-09-14T03:58:10.583Z,64.49
2022-09-14T04:00:36.905Z,64.41
2022-09-14T04:03:03.340Z,64.41
2022-09-14T04:05:29.603Z,64.42
2022-09-14T04:07:55.986Z,64.56
2022-09-14T04:10:22.264Z,64.78
2022-09-14T04:12:48.634Z,65.01
2022-09-14T04:15:14.996Z,65.06
2022-09-14T04:17:41.323Z,65.13
2022-09-14T04:20:07.750Z,65.06
2022-09-14T04:22:34.015Z,64.81
2022-09-14T04:25:00.361Z,64.70
2022-09-14T04:27:26.742Z,64.68
2022-09-14T04:29:53.052Z,64.52
2022-09-14T04:32:19.436Z,64.43
2022-09-14T04:34:45.761Z,64.43
2022-09-14T04:37:12.109Z,64.43
2022-09-14T04:39:38.451Z,64.41
2022-09-14T04:42:04.767Z,64.36
2022-09-14T04:44:31.108Z,64.37
2022-09-14T04:46:57.507Z,64.21
2022-09-14T04:49:23.803Z,64.01
2022-09-14T04:51:50.152Z,63.77
2022-09-14T04:54:16.468Z,72.04
2022-09-14T04:56:42.849Z,74.59
2022-09-14T04:59:09.184Z,73.42
2022-09-14T05:01:35.539Z,72.41
2022-09-14T05:04:01.844Z,69.82
2022-09-14T05:06:28.165Z,65.39
2022-09-14T05:08:54.486Z,62.78
2022-09-14T05:11:20.819Z,61.90
2022-09-14T05:13:49.971Z,60.90
2022-09-14T05:16:13.507Z,60.54
2022-09-14T05:18:39.854Z,60.27
2022-09-14T05:21:08.385Z,60.07
2022-09-14T05:23:32.470Z,59.86
2022-09-14T05:25:58.832Z,59.47
2022-09-14T05:28:25.166Z,59.11
2022-09-14T05:30:51.545Z,58.68
2022-09-14T05:33:17.854Z,58.37
2022-09-14T05:35:44.238Z,58.03
2022-09-14T05:38:10.543Z,57.67
2022-09-14T05:40:36.866Z,57.25
2022-09-14T05:43:03.191Z,57.18
2022-09-14T05:45:29.534Z,56.80
2022-09-14T05:47:55.879Z,56.36
2022-09-14T05:50:22.221Z,56.09
2022-09-14T05:52:48.534Z,56.11
2022-09-14T05:55:14.891Z,55.62
2022-09-14T05:57:41.208Z,55.46
2022-09-14T06:00:07.535Z,55.08
2022-09-14T06:02:33.913Z,54.85
2022-09-14T06:05:00.349Z,54.41
2022-09-14T06:07:26.590Z,54.03
2022-09-14T06:09:52.967Z,53.49
2022-09-14T06:12:19.305Z,52.77
2022-09-14T06:14:45.662Z,52.43
2022-09-14T06:17:11.968Z,51.95
2022-09-14T06:19:38.289Z,52.19
2022-09-14T06:22:04.629Z,51.82
2022-09-14T06:24:30.977Z,51.62
2022-09-14T06:26:57.309Z,51.13
2022-09-14T06:29:23.635Z,51.02
2022-09-14T06:31:49.975Z,50.44
2022-09-14T06:34:16.303Z,49.79
2022-09-14T06:36:42.639Z,49.39
2022-09-14T06:39:09.013Z,49.43
2022-09-14T06:41:35.351Z,48.92
2022-09-14T06:44:01.737Z,48.67
2022-09-14T06:46:27.990Z,48.29
2022-09-14T06:48:54.312Z,48.21
2022-09-14T06:51:20.654Z,47.78
2022-09-14T06:53:46.989Z,47.50
2022-09-14T06:56:13.310Z,47.38
2022-09-14T06:58:39.634Z,46.56
2022-09-14T07:01:05.972Z,46.31
2022-09-14T07:03:32.297Z,45.73
2022-09-14T07:05:58.655Z,45.20
2022-09-14T07:08:24.974Z,45.20
2022-09-14T07:10:51.336Z,45.02
2022-09-14T07:13:17.674Z,44.52
2022-09-14T07:15:43.992Z,44.17
2022-09-14T07:18:10.319Z,43.51
2022-09-14T07:20:36.684Z,43.28
2022-09-14T07:23:03.050Z,43.22
2022-09-14T07:25:29.404Z,43.11
2022-09-14T07:27:55.779Z,43.08
2022-09-14T07:30:22.193Z,42.45
2022-09-14T07:32:48.455Z,42.34
2022-09-14T07:35:14.826Z,41.90
2022-09-14T07:37:41.149Z,40.94
2022-09-14T07:40:07.534Z,40.93
2022-09-14T07:42:33.844Z,41.00
2022-09-14T07:45:00.155Z,40.93
2022-09-14T07:47:26.481Z,40.71
2022-09-14T07:49:52.864Z,40.27
2022-09-14T07:52:19.201Z,40.01
2022-09-14T07:54:45.517Z,39.56
2022-09-14T07:57:11.877Z,39.29
2022-09-14T07:59:38.226Z,39.26
2022-09-14T08:02:04.585Z,39.16
2022-09-14T08:04:30.872Z,39.13
2022-09-14T08:06:57.197Z,39.09
2022-09-14T08:09:23.515Z,39.01
2022-09-14T08:11:49.864Z,38.52
2022-09-14T08:14:16.181Z,37.93
2022-09-14T08:16:42.576Z,37.48
2022-09-14T08:19:08.881Z,38.14
2022-09-14T08:21:35.208Z,37.60
2022-09-14T08:24:01.548Z,36.58
2022-09-14T08:26:27.890Z,36.70
2022-09-14T08:28:54.625Z,37.18
2022-09-14T08:31:21.081Z,37.70
2022-09-14T08:33:47.324Z,37.21
2022-09-14T08:36:13.644Z,37.25
2022-09-14T08:38:39.962Z,36.95
2022-09-14T08:41:06.285Z,36.54
2022-09-14T08:43:32.627Z,36.28
2022-09-14T08:45:59.057Z,36.19
2022-09-14T08:48:25.328Z,35.89
2022-09-14T08:50:51.649Z,35.47
2022-09-14T08:53:17.986Z,35.32
2022-09-14T08:55:44.329Z,35.11
2022-09-14T08:58:10.647Z,35.15
2022-09-14T09:00:37.063Z,34.86
2022-09-14T09:03:03.327Z,34.78
2022-09-14T09:05:29.648Z,34.42
2022-09-14T09:07:55.991Z,34.72
2022-09-14T09:10:22.316Z,34.47
2022-09-14T09:12:48.652Z,34.49
2022-09-14T09:15:14.982Z,34.36
2022-09-14T09:17:41.300Z,34.10
2022-09-14T09:20:07.646Z,33.92
2022-09-14T09:22:33.999Z,33.58
2022-09-14T09:25:00.343Z,33.32
2022-09-14T09:27:26.691Z,32.94
2022-09-14T09:29:53.014Z,33.20
2022-09-14T09:32:19.337Z,32.83
2022-09-14T09:34:45.715Z,32.82
2022-09-14T09:37:12.051Z,33.08
2022-09-14T09:39:38.394Z,32.94
2022-09-14T09:42:04.754Z,32.68
2022-09-14T09:44:31.075Z,32.45
2022-09-14T09:46:57.420Z,32.17
2022-09-14T09:49:23.717Z,32.21
2022-09-14T09:51:50.080Z,32.18
2022-09-14T09:54:16.421Z,32.00
2022-09-14T09:56:42.742Z,32.29
2022-09-14T09:59:09.087Z,32.02
2022-09-14T10:01:35.628Z,31.54
2022-09-14T10:04:01.766Z,31.49
2022-09-14T10:06:28.121Z,31.68
2022-09-14T10:08:54.460Z,31.54
2022-09-14T10:11:20.802Z,30.67
2022-09-14T10:13:47.145Z,30.77
2022-09-14T10:16:13.503Z,30.61
2022-09-14T10:18:39.857Z,31.14
2022-09-14T10:21:06.169Z,31.52
2022-09-14T10:23:32.486Z,31.31
2022-09-14T10:25:58.827Z,31.30
2022-09-14T10:28:25.172Z,31.36
2022-09-14T10:30:51.578Z,30.85
2022-09-14T10:33:17.843Z,30.84
2022-09-14T10:35:44.183Z,30.91
2022-09-14T10:38:10.532Z,30.14
2022-09-14T10:40:36.839Z,30.49
2022-09-14T10:43:03.214Z,30.69
2022-09-14T10:45:29.545Z,31.66
2022-09-14T10:47:55.866Z,31.52
2022-09-14T10:50:22.224Z,30.82
2022-09-14T10:52:48.569Z,30.27
2022-09-14T10:55:14.908Z,29.61
2022-09-14T10:57:41.259Z,29.03
2022-09-14T11:00:07.579Z,28.84
2022-09-14T11:02:34.037Z,28.91
2022-09-14T11:05:00.278Z,28.92
2022-09-14T11:07:26.594Z,29.28
2022-09-14T11:09:52.918Z,29.69
2022-09-14T11:12:19.275Z,30.04
2022-09-14T11:14:45.614Z,29.60
2022-09-14T11:17:11.940Z,29.23
2022-09-14T11:19:38.259Z,29.12
2022-09-14T11:22:04.621Z,29.51
2022-09-14T11:24:30.942Z,30.13
2022-09-14T11:26:57.301Z,30.26
2022-09-14T11:29:23.650Z,30.54
2022-09-14T11:32:10.100Z,29.65
2022-09-14T11:34:16.290Z,29.46
2022-09-14T11:36:42.664Z,29.51
2022-09-14T11:39:09.040Z,28.91
2022-09-14T11:41:35.381Z,28.64
2022-09-14T11:44:01.747Z,28.60
2022-09-14T11:46:28.165Z,28.92
2022-09-14T11:48:54.591Z,28.63
2022-09-14T11:51:20.749Z,28.64
2022-09-14T11:53:47.092Z,28.42
2022-09-14T11:56:13.413Z,28.33
2022-09-14T11:58:39.839Z,28.35
2022-09-14T12:01:06.160Z,27.96
2022-09-14T12:03:32.507Z,28.04
2022-09-14T12:05:58.840Z,28.14
2022-09-14T12:08:25.154Z,28.79
2022-09-14T12:10:51.539Z,28.82
2022-09-14T12:13:18.086Z,28.88
2022-09-14T12:15:44.466Z,28.31
2022-09-14T12:18:10.746Z,28.33
2022-09-14T12:20:37.095Z,28.07
2022-09-14T12:23:03.432Z,28.28
2022-09-14T12:25:29.774Z,28.34
2022-09-14T12:27:56.120Z,28.49
2022-09-14T12:30:22.494Z,28.65
2022-09-14T12:32:48.833Z,28.58
2022-09-14T12:35:15.147Z,28.61
2022-09-14T12:37:41.493Z,28.66
2022-09-14T12:40:07.930Z,28.78
2022-09-14T12:42:34.206Z,29.00
2022-09-14T12:45:00.548Z,29.00
2022-09-14T12:47:26.867Z,28.93
2022-09-14T12:49:53.242Z,29.36
2022-09-14T12:52:19.582Z,29.29
2022-09-14T12:54:50.569Z,29.83
2022-09-14T12:57:12.238Z,29.92
2022-09-14T12:59:38.585Z,30.25
2022-09-14T13:02:05.069Z,30.46
2022-09-14T13:04:31.266Z,30.86
2022-09-14T13:06:57.583Z,31.10
2022-09-14T13:09:23.935Z,31.25
2022-09-14T13:11:50.275Z,31.38
2022-09-14T13:14:16.618Z,31.58
2022-09-14T13:16:42.990Z,31.73
2022-09-14T13:19:13.028Z,32.05
2022-09-14T13:21:35.604Z,32.53
2022-09-14T13:24:01.948Z,32.79
2022-09-14T13:26:28.262Z,32.86
2022-09-14T13:28:54.590Z,33.15
2022-09-14T13:31:21.025Z,33.41
2022-09-14T13:33:47.271Z,33.67
2022-09-14T13:36:13.615Z,33.74
2022-09-14T13:38:39.962Z,34.17
2022-09-14T13:41:06.295Z,34.35
2022-09-14T13:43:32.641Z,34.50
2022-09-14T13:45:59.044Z,35.02
2022-09-14T13:48:25.285Z,34.91
2022-09-14T13:50:51.609Z,35.07
2022-09-14T13:53:17.949Z,35.29
2022-09-14T13:55:44.251Z,35.42
2022-09-14T13:58:10.567Z,35.57
2022-09-14T14:00:36.894Z,35.68
2022-09-14T14:03:03.258Z,35.80
2022-09-14T14:05:29.561Z,35.94
2022-09-14T14:07:55.900Z,36.05
2022-09-14T14:10:22.240Z,36.03
2022-09-14T14:12:50.789Z,36.17
2022-09-14T14:15:14.922Z,36.26
2022-09-14T14:17:41.258Z,36.43
2022-09-14T14:20:07.591Z,36.45
2022-09-14T14:22:33.924Z,36.54
2022-09-14T14:25:15.495Z,36.69
2022-09-14T14:27:26.594Z,36.71
2022-09-14T14:29:52.976Z,36.83
2022-09-14T14:32:19.355Z,36.89
2022-09-14T14:34:45.673Z,37.01
2022-09-14T14:37:12.011Z,37.25
2022-09-14T14:39:38.369Z,37.09
2022-09-14T14:42:04.690Z,37.15
2022-09-14T14:44:31.014Z,37.19
2022-09-14T14:46:57.377Z,37.16
2022-09-14T14:49:23.692Z,37.18
2022-09-14T14:51:50.036Z,37.25
2022-09-14T14:54:16.344Z,37.07
2022-09-14T14:56:42.689Z,36.96
2022-09-14T14:59:09.032Z,37.18
2022-09-14T15:01:35.360Z,37.29
2022-09-14T15:04:01.747Z,37.29
2022-09-14T15:06:28.055Z,37.22
2022-09-14T15:08:54.408Z,37.67
2022-09-14T15:11:20.725Z,37.99
2022-09-14T15:13:47.072Z,38.17
2022-09-14T15:16:13.432Z,38.38
2022-09-14T15:18:39.781Z,38.54
2022-09-14T15:21:06.120Z,38.48
2022-09-14T15:23:32.470Z,38.42
2022-09-14T15:25:58.846Z,38.53
2022-09-14T15:28:25.190Z,38.39
2022-09-14T15:30:51.510Z,38.39
2022-09-14T15:33:17.861Z,38.60
2022-09-14T15:35:44.194Z,38.61
2022-09-14T15:38:10.510Z,38.42
2022-09-14T15:40:36.920Z,38.67
2022-09-14T15:43:03.184Z,38.71
2022-09-14T15:45:29.573Z,38.69
2022-09-14T15:47:55.876Z,38.66
2022-09-14T15:50:22.215Z,38.69
2022-09-14T15:52:48.563Z,38.64
2022-09-14T15:55:14.940Z,38.73
2022-09-14T15:57:41.283Z,38.65
2022-09-14T16:00:07.629Z,38.63
2022-09-14T16:02:34.053Z,38.75
2022-09-14T16:05:00.345Z,38.82
2022-09-14T16:07:26.678Z,38.75
2022-09-14T16:09:57.130Z,38.77
2022-09-14T16:12:19.348Z,38.73
2022-09-14T16:14:45.686Z,38.91
2022-09-14T16:17:12.028Z,39.31
2022-09-14T16:19:38.382Z,39.58
2022-09-14T16:22:04.739Z,39.71
2022-09-14T16:24:31.101Z,39.85
2022-09-14T16:26:57.435Z,40.58
2022-09-14T16:29:23.762Z,40.07
2022-09-14T16:31:50.137Z,40.04
2022-09-14T16:34:16.495Z,40.07
2022-09-14T16:36:42.887Z,40.67
2022-09-14T16:39:09.262Z,41.29
2022-09-14T16:41:35.653Z,41.96
2022-09-14T16:44:01.982Z,41.63
2022-09-14T16:46:28.336Z,41.51
2022-09-14T16:48:54.747Z,41.76
2022-09-14T16:51:21.094Z,41.94
2022-09-14T16:53:47.489Z,41.95
2022-09-14T16:56:13.834Z,41.92
2022-09-14T16:58:40.151Z,41.90
2022-09-14T17:01:06.537Z,42.00
2022-09-14T17:03:32.840Z,41.85
2022-09-14T17:05:59.200Z,43.21
2022-09-14T17:08:25.538Z,43.13
2022-09-14T17:10:51.946Z,42.43
2022-09-14T17:13:18.253Z,43.70
2022-09-14T17:15:44.583Z,43.80
2022-09-14T17:18:10.922Z,43.76
2022-09-14T17:20:37.288Z,44.57
2022-09-14T17:23:03.627Z,44.76
2022-09-14T17:25:29.997Z,45.05
2022-09-14T17:27:56.373Z,44.90
2022-09-14T17:30:22.696Z,44.58
2022-09-14T17:32:49.040Z,45.39
2022-09-14T17:35:15.368Z,45.51
2022-09-14T17:37:41.719Z,45.76
2022-09-14T17:40:08.123Z,45.76
2022-09-14T17:42:34.408Z,45.89
2022-09-14T17:45:00.743Z,45.81
2022-09-14T17:47:27.070Z,45.71
2022-09-14T17:49:53.396Z,45.63
2022-09-14T17:52:19.756Z,45.62
2022-09-14T17:54:46.099Z,45.58
2022-09-14T17:57:12.435Z,45.93
2022-09-14T17:59:38.768Z,46.17
2022-09-14T18:02:05.099Z,46.21
2022-09-14T18:04:31.445Z,45.84
2022-09-14T18:06:57.798Z,45.97
2022-09-14T18:09:24.165Z,45.97
2022-09-14T18:11:50.495Z,44.85
2022-09-14T18:14:16.817Z,45.69
2022-09-14T18:16:43.209Z,45.72
2022-09-14T18:19:09.481Z,45.61
2022-09-14T18:21:35.821Z,45.98
2022-09-14T18:24:02.152Z,47.25
2022-09-14T18:26:28.493Z,47.66
2022-09-14T18:28:54.823Z,47.74
2022-09-14T18:31:21.200Z,47.83
2022-09-14T18:33:47.485Z,47.76
2022-09-14T18:36:13.804Z,48.06
2022-09-14T18:38:40.173Z,48.43
2022-09-14T18:41:06.521Z,48.83
2022-09-14T18:43:32.877Z,48.94
2022-09-14T18:45:59.220Z,48.85
2022-09-14T18:48:25.564Z,49.24
2022-09-14T18:50:51.946Z,49.43
2022-09-14T18:53:18.310Z,49.30
2022-09-14T18:55:44.651Z,48.78
2022-09-14T18:58:10.989Z,49.11
2022-09-14T19:00:37.367Z,49.48
2022-09-14T19:03:03.637Z,49.85
2022-09-14T19:05:29.976Z,49.75
2022-09-14T19:07:56.321Z,49.34
2022-09-14T19:10:22.643Z,48.79
2022-09-14T19:12:48.990Z,49.42
2022-09-14T19:15:15.395Z,49.67
2022-09-14T19:17:41.738Z,49.71
2022-09-14T19:20:08.073Z,49.74
2022-09-14T19:22:34.401Z,50.16
2022-09-14T19:25:00.739Z,50.60
2022-09-14T19:27:27.061Z,50.48
2022-09-14T19:29:53.497Z,50.29
2022-09-14T19:32:19.816Z,50.08
2022-09-14T19:34:46.187Z,50.21
2022-09-14T19:37:12.533Z,50.64
2022-09-14T19:39:38.886Z,51.12
2022-09-14T19:42:05.238Z,51.46
2022-09-14T19:44:31.557Z,51.68
2022-09-14T19:46:57.897Z,51.24
2022-09-14T19:49:24.248Z,50.87
2022-09-14T19:51:50.595Z,50.94
2022-09-14T19:54:16.956Z,51.29
2022-09-14T19:56:43.296Z,51.25
2022-09-14T19:59:09.635Z,51.36
2022-09-14T20:01:36.097Z,51.31
2022-09-14T20:04:02.323Z,51.02
2022-09-14T20:06:28.674Z,50.92
2022-09-14T20:08:54.998Z,51.41
2022-09-14T20:11:21.330Z,51.71
2022-09-14T20:13:47.670Z,51.27
2022-09-14T20:16:14.042Z,51.18
2022-09-14T20:18:40.319Z,51.92
2022-09-14T20:21:06.706Z,51.67
2022-09-14T20:23:33.086Z,52.00
2022-09-14T20:25:59.416Z,52.45
2022-09-14T20:28:25.753Z,52.61
2022-09-14T20:30:52.116Z,52.67
2022-09-14T20:33:18.423Z,52.79
2022-09-14T20:35:44.781Z,52.71
2022-09-14T20:38:11.104Z,52.93
2022-09-14T20:40:37.479Z,53.02
2022-09-14T20:43:03.788Z,52.94
2022-09-14T20:45:30.144Z,53.09
2022-09-14T20:47:56.495Z,53.38
2022-09-14T20:50:22.862Z,53.37
2022-09-14T20:52:49.181Z,53.51
2022-09-14T20:55:15.503Z,53.98
2022-09-14T20:57:41.872Z,54.24
2022-09-14T21:00:08.202Z,54.24
2022-09-14T21:02:34.571Z,54.25
2022-09-14T21:05:00.874Z,54.38
2022-09-14T21:07:27.199Z,54.65
2022-09-14T21:09:53.532Z,54.62
2022-09-14T21:12:19.854Z,54.51
2022-09-14T21:14:46.184Z,55.38
2022-09-14T21:17:12.533Z,55.72
2022-09-14T21:19:38.860Z,55.43
2022-09-14T21:22:05.203Z,56.00
2022-09-14T21:24:31.553Z,56.72
2022-09-14T21:26:57.893Z,57.14
2022-09-14T21:29:24.261Z,57.57
2022-09-14T21:31:50.582Z,57.40
2022-09-14T21:34:16.933Z,57.36
2022-09-14T21:36:43.270Z,57.66
2022-09-14T21:39:09.644Z,57.12
2022-09-14T21:41:35.976Z,56.97
2022-09-14T21:44:02.309Z,57.33
2022-09-14T21:46:28.711Z,57.43
2022-09-14T21:48:55.007Z,57.90
2022-09-14T21:51:21.338Z,57.71
2022-09-14T21:53:47.664Z,57.90
2022-09-14T21:56:14.007Z,57.93
2022-09-14T21:58:40.335Z,57.94
2022-09-14T22:01:06.713Z,58.21
2022-09-14T22:03:33.001Z,58.18
2022-09-14T22:05:59.321Z,58.02
2022-09-14T22:08:25.669Z,58.13
2022-09-14T22:10:52.006Z,58.16
2022-09-14T22:13:18.352Z,58.08
2022-09-14T22:15:44.700Z,58.19
2022-09-14T22:18:11.006Z,58.08
2022-09-14T22:20:37.324Z,57.99
2022-09-14T22:23:03.651Z,58.08
2022-09-14T22:25:29.993Z,58.22
2022-09-14T22:27:56.339Z,58.60
2022-09-14T22:30:22.681Z,58.87
2022-09-14T22:32:49.023Z,58.69
2022-09-14T22:35:15.378Z,58.84
2022-09-14T22:37:41.709Z,58.78
2022-09-14T22:40:08.099Z,58.46
2022-09-14T22:42:34.417Z,58.61
2022-09-14T22:45:00.731Z,58.96
2022-09-14T22:47:27.057Z,59.22
2022-09-14T22:49:53.378Z,59.21
2022-09-14T22:52:19.710Z,59.03
2022-09-14T22:54:46.030Z,59.12
2022-09-14T22:57:12.391Z,59.17
2022-09-14T22:59:38.734Z,59.14
2022-09-14T23:02:05.107Z,59.19
2022-09-14T23:04:31.397Z,59.26
2022-09-14T23:06:57.737Z,59.23
2022-09-14T23:09:24.083Z,59.33
2022-09-14T23:11:50.454Z,59.52
2022-09-14T23:14:16.793Z,59.41
2022-09-14T23:16:43.152Z,59.45
2022-09-14T23:19:09.479Z,59.65
2022-09-14T23:21:35.825Z,59.66
2022-09-14T23:24:02.157Z,59.81
2022-09-14T23:26:28.499Z,59.96
2022-09-14T23:28:54.814Z,60.22
2022-09-14T23:31:21.212Z,60.28
2022-09-14T23:33:47.497Z,60.33
2022-09-14T23:36:13.864Z,60.60
2022-09-14T23:38:40.184Z,60.71
2022-09-14T23:41:06.528Z,61.11
2022-09-14T23:43:32.880Z,61.05
2022-09-14T23:45:59.231Z,61.28
2022-09-14T23:48:25.525Z,61.20
2022-09-14T23:50:51.885Z,61.28
2022-09-14T23:53:18.210Z,61.08
2022-09-14T23:55:44.545Z,61.15
2022-09-14T23:58:10.864Z,61.45
